Nearby METAR Reports

 

KLBE - Latrobe/Westmorl, Pennsylvania, USA
Distance from station: SE 16mi, 26km
Updated: Fri, 02-Dec-2016 11:15pm EST
Overcast
Overcast
 Wind from WSW
Wind: WSW 10 mph , 17 km/h, Gust: 16 mph , 26 km/h
Temperature: 36°F , 2°C
Wind Chill: 29°F , -2°C
Dew Point: 32°F , 0°C
Humidity: 87%
Barometer: 30.18 inHg , 1022 hPa
Clouds: Overcast
Visibility: 10 miles , 16 km
Cloud details: Overcast 1800 ft
2016/12/03 04:15 KLBE 030415Z AUTO 24009G14KT 10SM OVC018 02/00 A3018 RMK AO2
KAGC - Pittsburgh/Alleg, Pennsylvania, USA
Distance from station: WSW 18mi, 30km
Updated: Fri, 02-Dec-2016 10:53pm EST
Overcast
Overcast
 Wind from W
Wind: W 16 mph , 26 km/h, Gust: 22 mph , 35 km/h
Temperature: 37°F , 3°C
Wind Chill: 28°F , -2°C
Dew Point: 28°F , -2°C
Humidity: 70%
Barometer: 30.16 inHg , 1021.3 hPa
Clouds: Overcast
Visibility: 10 miles , 16 km
Cloud details: Overcast 1900 ft
2016/12/03 03:53 KAGC 030353Z 27014G19KT 10SM OVC019 03/M02 A3016 RMK AO2 SLP228 T00281022 $
 
KBTP - Butler Co., Pennsylvania, USA
Distance from station: NW 29mi, 47km
Updated: Fri, 02-Dec-2016 11:15pm EST
Overcast
Overcast
 Wind from W
Wind: W 8 mph , 13 km/h
Temperature: 36°F , 2°C
Wind Chill: 30°F , -1°C
Dew Point: 30°F , -1°C
Humidity: 81%
Barometer: 30.19 inHg , 1022.4 hPa
Clouds: Overcast
Visibility: 10 miles , 16 km
Cloud details: Overcast 3000 ft
2016/12/03 04:15 KBTP 030415Z AUTO 26007KT 10SM OVC030 02/M01 A3019 RMK AO1
KIDI - Indiana/Stewart, Pennsylvania, USA
Distance from station: ENE 29mi, 47km
Updated: Fri, 02-Dec-2016 11:15pm EST
Overcast
Overcast
 Wind from W
Wind: W 13 mph , 20 km/h, Gust: 18 mph , 30 km/h
Temperature: 36°F , 2°C
Wind Chill: 27°F , -3°C
Dew Point: 32°F , 0°C
Humidity: 87%
Barometer: 30.15 inHg , 1021 hPa
Clouds: Overcast
Visibility: 10 miles , 16 km
Cloud details: Partly cloudy 1800 ft
Overcast 2800 ft
2016/12/03 04:15 KIDI 030415Z AUTO 28011G16KT 10SM SCT018 OVC028 02/00 A3015 RMK A01
 
KPIT - Pittsburgh, Pennsylvania, USA
Distance from station: W 36mi, 57km
Updated: Fri, 02-Dec-2016 11:28pm EST
Overcast
Overcast
 Wind from WNW
Wind: WNW 16 mph , 26 km/h
Temperature: 37°F , 3°C
Wind Chill: 28°F , -2°C
Dew Point: 30°F , -1°C
Humidity: 75%
Barometer: 30.19 inHg , 1022.4 hPa
Clouds: Overcast
Visibility: 10 miles , 16 km
Cloud details: Partly cloudy 2100 ft
Overcast 4200 ft
2016/12/03 04:28 KPIT 030428Z 29014KT 10SM SCT021 OVC042 03/M01 A3019 RMK AO2 T00331006
KJST - Johnstown, Pennsylvania, USA
Distance from station: ESE 41mi, 66km
Updated: Fri, 02-Dec-2016 11:07pm EST
Overcast
Overcast
 Wind from W
Wind: W 15 mph , 24 km/h, Gust: 25 mph , 41 km/h
Temperature: 32°F , 0°C
Wind Chill: 22°F , -6°C
Dew Point: 28°F , -2°C
Humidity: 87%
Barometer: 30.06 inHg , 1017.9 hPa
Clouds: Overcast
Visibility: 7 miles , 11 km
Cloud details: Overcast 900 ft
2016/12/03 04:07 KJST 030407Z AUTO 28013G22KT 7SM UP OVC009 00/M02 A3006 RMK AO2 UPB03SNE03 P0000 T00001017 TSNO
 
KAFJ - Washington, Pennsylvania, USA
Distance from station: WSW 42mi, 68km
Updated: Fri, 02-Dec-2016 11:15pm EST
Overcast
Overcast
 Wind from W
Wind: W 8 mph , 13 km/h
Temperature: 36°F , 2°C
Wind Chill: 30°F , -1°C
Dew Point: 28°F , -2°C
Humidity: 75%
Barometer: 30.21 inHg , 1023 hPa
Clouds: Overcast
Visibility: 10 miles , 16 km
Cloud details: Partly cloudy 1800 ft
Partly cloudy 2400 ft
Overcast 5000 ft
2016/12/03 04:15 KAFJ 030415Z AUTO 26007KT 230V290 10SM SCT018 SCT024 OVC050 02/M02 A3021 RMK AO1
KBVI - Beaver Falls Arp, Pennsylvania, USA
Distance from station: WNW 48mi, 77km
Updated: Fri, 02-Dec-2016 8:47pm EST
NOT Current
Overcast
Overcast
 Wind from W
Wind: W 9 mph , 15 km/h
Temperature: 36°F , 2°C
Wind Chill: 29°F , -2°C
Dew Point: 32°F , 0°C
Humidity: 87%
Barometer: 30.13 inHg , 1020.3 hPa
Clouds: Overcast
Visibility: 10 miles , 16 km
Cloud details: Overcast 1400 ft
2016/12/03 01:47 KBVI 030147Z 27008KT 10SM OVC014 02/00 A3013 RMK LAST